createdAt,value
2023-05-14T00:06:22.110Z,22.21
2023-05-14T00:35:24.706Z,22.17
2023-05-14T01:04:22.752Z,22.14
2023-05-14T01:33:25.157Z,22.11
2023-05-14T02:02:25.641Z,22.07
2023-05-14T02:31:13.757Z,22.04
2023-05-14T03:00:12.142Z,22.02
2023-05-14T03:28:55.864Z,21.99
2023-05-14T03:57:52.191Z,21.97
2023-05-14T04:26:52.544Z,21.93
2023-05-14T04:55:55.935Z,21.92
2023-05-14T05:24:53.992Z,22.14
2023-05-14T05:53:57.425Z,22.3
2023-05-14T06:22:43.165Z,22.25
2023-05-14T06:51:35.470Z,22.42
2023-05-14T07:20:32.598Z,22.37
2023-05-14T07:49:23.940Z,22.3
2023-05-14T08:18:18.052Z,22.24
2023-05-14T08:47:06.995Z,22.21
2023-05-14T09:16:02.304Z,22.19
2023-05-14T09:44:51.695Z,22.18
2023-05-14T10:13:39.531Z,22.17
2023-05-14T10:42:39.084Z,22.18
2023-05-14T11:11:32.769Z,22.09
2023-05-14T11:40:26.028Z,22.06
2023-05-14T12:08:57.429Z,22.03
2023-05-14T12:37:49.497Z,22
2023-05-14T13:06:38.939Z,21.99
2023-05-14T13:35:38.396Z,21.98
2023-05-14T14:04:15.957Z,21.98
2023-05-14T14:33:16.918Z,21.98
2023-05-14T15:02:17.898Z,21.98
2023-05-14T15:31:10.929Z,21.99
2023-05-14T16:00:00.505Z,22
2023-05-14T16:28:49.775Z,22.02
2023-05-14T16:57:22.898Z,22.04
2023-05-14T17:25:57.495Z,22.05
2023-05-14T17:54:40.250Z,22.07
2023-05-14T18:23:20.513Z,22.07
2023-05-14T18:51:59.622Z,22.08
2023-05-14T19:20:37.964Z,22.06
2023-05-14T19:49:14.987Z,22.05
2023-05-14T20:18:02.767Z,22.04
2023-05-14T20:46:49.441Z,22.02
2023-05-14T21:15:25.367Z,21.99
2023-05-14T21:44:00.091Z,21.98
2023-05-14T22:12:49.395Z,21.95
2023-05-14T22:41:27.748Z,21.94
2023-05-14T23:10:13.276Z,21.91
2023-05-14T23:39:02.409Z,21.9
